createdAt,value
2018-12-12T00:01:12.014Z,3.27
2018-12-12T00:03:41.989Z,3.27
2018-12-12T00:06:11.999Z,2.25
2018-12-12T00:08:39.947Z,1.57
2018-12-12T00:11:07.894Z,2.83
2018-12-12T00:13:37.008Z,2.98
2018-12-12T00:16:04.999Z,2.00
2018-12-12T00:18:32.970Z,2.58
2018-12-12T00:21:01.032Z,2.20
2018-12-12T00:23:28.974Z,2.45
2018-12-12T00:25:57.004Z,1.92
2018-12-12T00:28:31.695Z,1.45
2018-12-12T00:30:59.657Z,3.55
2018-12-12T00:33:27.558Z,3.25
2018-12-12T00:35:55.485Z,3.08
2018-12-12T00:38:23.710Z,2.50
2018-12-12T00:40:52.003Z,3.10
2018-12-12T00:43:20.296Z,1.45
2018-12-12T00:45:48.678Z,3.20
2018-12-12T00:48:16.932Z,0.80
2018-12-12T00:50:45.343Z,1.42
2018-12-12T00:53:13.696Z,0.80
2018-12-12T00:55:41.631Z,1.70
2018-12-12T00:58:09.560Z,2.60
2018-12-12T01:00:37.542Z,2.27
2018-12-12T01:03:05.453Z,1.50
2018-12-12T01:05:33.410Z,1.20
2018-12-12T01:08:01.314Z,0.70
2018-12-12T01:10:29.245Z,0.80
2018-12-12T01:12:57.210Z,0.85
2018-12-12T01:15:25.157Z,1.30
2018-12-12T01:17:53.125Z,1.17
2018-12-12T01:20:21.060Z,1.52
2018-12-12T01:22:49.012Z,1.92
2018-12-12T01:25:17.042Z,1.50
2018-12-12T01:27:44.964Z,0.78
2018-12-12T01:30:12.897Z,1.12
2018-12-12T01:32:40.829Z,1.80
2018-12-12T01:35:08.758Z,4.15
2018-12-12T01:37:36.869Z,3.17
2018-12-12T01:40:05.160Z,2.75
2018-12-12T01:42:33.090Z,1.55
2018-12-12T01:45:01.002Z,1.22
2018-12-12T01:47:28.899Z,1.17
2018-12-12T01:49:56.841Z,0.80
2018-12-12T01:52:24.708Z,1.95
2018-12-12T01:54:52.660Z,0.70
2018-12-12T01:57:20.702Z,1.60
2018-12-12T01:59:48.597Z,0.70
2018-12-12T02:02:16.524Z,1.00
2018-12-12T02:04:44.502Z,1.00
2018-12-12T02:07:12.419Z,0.95
2018-12-12T02:09:40.341Z,0.55
2018-12-12T02:12:15.209Z,0.50
2018-12-12T02:14:43.151Z,0.80
2018-12-12T02:17:11.096Z,3.00
2018-12-12T02:19:39.039Z,0.50
2018-12-12T02:22:06.970Z,1.22
2018-12-12T02:24:34.858Z,1.17
2018-12-12T02:27:02.826Z,1.45
2018-12-12T02:29:30.755Z,3.45
2018-12-12T02:31:58.779Z,1.55
2018-12-12T02:34:26.694Z,1.50
2018-12-12T02:36:54.662Z,1.20
2018-12-12T02:39:22.596Z,2.20
2018-12-12T02:41:50.573Z,1.67
2018-12-12T02:44:19.561Z,0.95
2018-12-12T02:46:47.506Z,1.10
2018-12-12T02:49:15.495Z,0.90
2018-12-12T02:51:43.423Z,1.70
2018-12-12T02:54:18.402Z,0.60
2018-12-12T02:56:46.325Z,0.93
2018-12-12T02:59:14.225Z,1.82
2018-12-12T03:01:42.160Z,1.35
2018-12-12T03:04:10.059Z,0.90
2018-12-12T03:06:37.985Z,1.20
2018-12-12T03:09:06.186Z,1.15
2018-12-12T03:11:35.301Z,2.98
2018-12-12T03:14:03.217Z,1.12
2018-12-12T03:16:31.251Z,1.12
2018-12-12T03:18:59.175Z,0.95
2018-12-12T03:21:27.102Z,1.62
2018-12-12T03:23:55.048Z,1.87
2018-12-12T03:26:22.997Z,2.25
2018-12-12T03:28:50.911Z,1.60
2018-12-12T03:31:18.846Z,2.50
2018-12-12T03:33:46.763Z,0.90
2018-12-12T03:36:14.712Z,0.88
2018-12-12T03:38:42.693Z,1.12
2018-12-12T03:41:10.617Z,1.22
2018-12-12T03:43:38.553Z,1.67
2018-12-12T03:46:13.430Z,0.80
2018-12-12T03:48:41.397Z,1.27
2018-12-12T03:51:09.319Z,1.95
2018-12-12T03:53:37.289Z,1.12
2018-12-12T03:56:05.208Z,0.80
2018-12-12T03:58:33.160Z,1.12
2018-12-12T04:01:01.062Z,1.40
2018-12-12T04:03:29.005Z,1.40
2018-12-12T04:05:56.940Z,2.15
2018-12-12T04:08:25.219Z,0.85
2018-12-12T04:10:53.282Z,2.98
2018-12-12T04:13:21.251Z,0.60
2018-12-12T04:15:49.221Z,2.02
2018-12-12T04:18:17.262Z,1.50
2018-12-12T04:20:45.183Z,2.15
2018-12-12T04:23:13.129Z,6.45
2018-12-12T04:25:41.197Z,2.40
2018-12-12T04:28:09.127Z,2.98
2018-12-12T04:30:37.053Z,1.72
2018-12-12T04:33:05.027Z,0.80
2018-12-12T04:35:32.982Z,2.08
2018-12-12T04:38:00.926Z,0.70
2018-12-12T04:40:28.986Z,0.70
2018-12-12T04:42:56.914Z,1.67
2018-12-12T04:45:24.863Z,0.78
2018-12-12T04:47:52.866Z,3.00
2018-12-12T04:50:20.830Z,0.60
2018-12-12T04:52:48.781Z,0.57
2018-12-12T04:55:16.710Z,0.70
2018-12-12T04:57:44.874Z,2.17
2018-12-12T05:00:12.921Z,0.70
2018-12-12T05:02:41.303Z,0.60
2018-12-12T05:05:09.277Z,0.80
2018-12-12T05:07:37.245Z,1.00
2018-12-12T05:10:05.361Z,2.45
2018-12-12T05:12:33.295Z,2.55
2018-12-12T05:15:01.202Z,1.55
2018-12-12T05:17:29.127Z,1.70
2018-12-12T05:19:57.120Z,2.62
2018-12-12T05:22:25.028Z,0.50
2018-12-12T05:24:52.982Z,1.57
2018-12-12T05:27:20.910Z,1.75
2018-12-12T05:29:48.847Z,0.72
2018-12-12T05:32:16.830Z,0.82
2018-12-12T05:34:44.772Z,1.40
2018-12-12T05:37:12.699Z,1.60
2018-12-12T05:39:40.667Z,6.97
2018-12-12T05:42:08.609Z,1.70
2018-12-12T05:44:36.533Z,1.95
2018-12-12T05:47:04.475Z,0.75
2018-12-12T05:49:32.443Z,1.12
2018-12-12T05:52:00.401Z,0.72
2018-12-12T05:54:28.321Z,1.22
2018-12-12T05:56:56.297Z,3.15
2018-12-12T05:59:24.234Z,3.47
2018-12-12T06:01:52.195Z,0.80
2018-12-12T06:04:20.164Z,1.55
2018-12-12T06:06:48.120Z,1.95
2018-12-12T06:09:16.095Z,4.50
2018-12-12T06:11:44.048Z,2.30
2018-12-12T06:14:12.036Z,2.10
2018-12-12T06:16:40.039Z,1.12
2018-12-12T06:19:08.143Z,1.25
2018-12-12T06:21:36.136Z,2.35
2018-12-12T06:24:04.082Z,3.75
2018-12-12T06:26:37.270Z,1.80
2018-12-12T06:29:02.064Z,2.50
2018-12-12T06:31:30.003Z,2.20
2018-12-12T06:33:59.081Z,2.42
2018-12-12T06:36:27.050Z,4.45
2018-12-12T06:38:55.009Z,3.87
2018-12-12T06:41:22.962Z,3.27
2018-12-12T06:43:50.895Z,2.10
2018-12-12T06:46:18.829Z,1.60
2018-12-12T06:48:46.742Z,2.05
2018-12-12T06:51:14.714Z,3.33
2018-12-12T06:53:42.783Z,2.22
2018-12-12T06:56:10.744Z,4.87
2018-12-12T06:58:45.826Z,1.90
2018-12-12T07:01:13.750Z,5.67
2018-12-12T07:03:41.795Z,3.30
2018-12-12T07:06:09.961Z,2.05
2018-12-12T07:08:37.896Z,3.62
2018-12-12T07:11:05.858Z,4.90
2018-12-12T07:13:35.852Z,9.95
2018-12-12T07:16:03.962Z,7.03
2018-12-12T07:18:32.006Z,8.00
2018-12-12T07:20:59.986Z,19.10
2018-12-12T07:23:27.914Z,3.65
2018-12-12T07:25:55.876Z,4.72
2018-12-12T07:28:23.896Z,1.60
2018-12-12T07:30:51.867Z,3.62
2018-12-12T07:33:19.807Z,4.92
2018-12-12T07:35:47.845Z,2.35
2018-12-12T07:38:15.883Z,3.98
2018-12-12T07:40:43.870Z,3.87
2018-12-12T07:43:13.918Z,1.37
2018-12-12T07:45:47.913Z,1.10
2018-12-12T07:48:17.931Z,1.10
2018-12-12T07:51:02.798Z,5.85
2018-12-12T07:53:53.652Z,8.48
2018-12-12T07:56:21.607Z,2.05
2018-12-12T07:58:49.548Z,8.53
2018-12-12T08:01:17.712Z,7.70
2018-12-12T08:03:45.685Z,4.45
2018-12-12T08:06:13.674Z,1.60
2018-12-12T08:08:41.686Z,2.30
2018-12-12T08:11:09.670Z,5.80
2018-12-12T08:13:37.623Z,3.70
2018-12-12T08:16:05.734Z,1.52
2018-12-12T08:18:33.682Z,1.37
2018-12-12T08:21:01.661Z,5.13
2018-12-12T08:23:29.952Z,6.50
2018-12-12T08:25:57.880Z,4.63
2018-12-12T08:28:25.812Z,1.20
2018-12-12T08:30:53.765Z,2.90
2018-12-12T08:33:21.705Z,8.53
2018-12-12T08:35:49.677Z,4.43
2018-12-12T08:38:17.606Z,3.23
2018-12-12T08:40:45.623Z,2.37
2018-12-12T08:43:13.601Z,4.70
2018-12-12T08:45:41.498Z,4.13
2018-12-12T08:48:09.495Z,1.80
2018-12-12T08:50:38.471Z,1.57
2018-12-12T08:53:06.421Z,0.70
2018-12-12T08:55:34.911Z,1.60
2018-12-12T08:58:02.837Z,4.47
2018-12-12T09:00:30.798Z,4.53
2018-12-12T09:02:58.799Z,1.30
2018-12-12T09:05:26.777Z,2.87
2018-12-12T09:07:56.482Z,3.20
2018-12-12T09:10:24.440Z,4.93
2018-12-12T09:12:52.413Z,1.33
2018-12-12T09:15:20.416Z,3.63
2018-12-12T09:17:48.432Z,5.37
2018-12-12T09:20:16.431Z,4.43
2018-12-12T09:22:44.401Z,3.23
2018-12-12T09:25:12.317Z,1.70
2018-12-12T09:27:40.306Z,7.83
2018-12-12T09:30:10.349Z,3.27
2018-12-12T09:32:40.593Z,2.20
2018-12-12T09:35:14.452Z,1.47
2018-12-12T09:37:42.512Z,4.67
2018-12-12T09:40:10.512Z,2.50
2018-12-12T09:42:38.451Z,3.33
2018-12-12T09:45:06.413Z,1.10
2018-12-12T09:47:34.383Z,1.30
2018-12-12T09:50:02.319Z,5.50
2018-12-12T09:52:32.353Z,1.60
2018-12-12T09:55:02.378Z,4.40
2018-12-12T09:57:30.397Z,3.40
2018-12-12T09:59:58.400Z,4.50
2018-12-12T10:02:26.349Z,3.27
2018-12-12T10:04:54.328Z,1.67
2018-12-12T10:07:22.322Z,2.33
2018-12-12T10:09:50.251Z,4.00
2018-12-12T10:12:18.262Z,1.33
2018-12-12T10:14:46.200Z,1.33
2018-12-12T10:17:14.120Z,1.43
2018-12-12T10:19:42.058Z,0.97
2018-12-12T10:22:10.114Z,2.00
2018-12-12T10:24:38.268Z,1.33
2018-12-12T10:27:06.187Z,1.13
2018-12-12T10:29:34.162Z,0.93
2018-12-12T10:32:02.121Z,0.80
2018-12-12T10:34:30.044Z,0.87
2018-12-12T10:36:58.067Z,0.90
2018-12-12T10:39:25.982Z,1.03
2018-12-12T10:41:53.918Z,1.63
2018-12-12T10:44:21.864Z,1.30
2018-12-12T10:46:49.802Z,2.23
2018-12-12T10:49:18.850Z,1.33
2018-12-12T10:51:46.805Z,4.60
2018-12-12T10:54:14.764Z,1.10
2018-12-12T10:56:42.685Z,3.50
2018-12-12T10:59:10.677Z,8.93
2018-12-12T11:01:44.185Z,2.13
2018-12-12T11:04:12.120Z,1.43
2018-12-12T11:06:40.106Z,0.70
2018-12-12T11:09:09.284Z,1.37
2018-12-12T11:11:38.380Z,0.83
2018-12-12T11:14:06.483Z,0.50
2018-12-12T11:16:34.408Z,5.13
2018-12-12T11:19:02.389Z,6.87
2018-12-12T11:21:30.326Z,1.77
2018-12-12T11:23:58.247Z,1.20
2018-12-12T11:26:26.185Z,6.10
2018-12-12T11:28:54.095Z,0.80
2018-12-12T11:31:22.022Z,2.20
2018-12-12T11:33:50.561Z,3.20
2018-12-12T11:36:18.757Z,1.80
2018-12-12T11:38:46.755Z,3.50
2018-12-12T11:41:14.732Z,1.30
2018-12-12T11:43:42.666Z,0.80
2018-12-12T11:46:10.634Z,0.87
2018-12-12T11:48:38.631Z,0.80
2018-12-12T11:51:07.621Z,1.30
2018-12-12T11:53:35.602Z,2.47
2018-12-12T11:56:03.651Z,2.20
2018-12-12T11:58:31.608Z,0.80
2018-12-12T12:00:59.561Z,1.17
2018-12-12T12:03:27.588Z,3.63
2018-12-12T12:05:55.648Z,0.60
2018-12-12T12:08:23.672Z,1.83
2018-12-12T12:10:51.614Z,2.30
2018-12-12T12:13:21.599Z,1.70
2018-12-12T12:15:50.682Z,1.67
2018-12-12T12:18:18.590Z,4.10
2018-12-12T12:20:46.570Z,2.20
2018-12-12T12:23:14.508Z,2.97
2018-12-12T12:25:42.513Z,1.20
2018-12-12T12:28:10.491Z,2.20
2018-12-12T12:30:38.474Z,1.00
2018-12-12T12:33:06.413Z,0.70
2018-12-12T12:35:34.341Z,0.60
2018-12-12T12:38:02.427Z,0.90
2018-12-12T12:40:30.371Z,0.70
2018-12-12T12:42:58.359Z,1.90
2018-12-12T12:45:26.317Z,0.70
2018-12-12T12:47:54.244Z,0.97
2018-12-12T12:50:22.169Z,1.27
2018-12-12T12:52:50.136Z,2.40
2018-12-12T12:55:18.061Z,5.40
2018-12-12T12:57:45.986Z,2.80
2018-12-12T13:00:13.940Z,1.50
2018-12-12T13:02:41.851Z,1.07
2018-12-12T13:05:09.984Z,2.23
2018-12-12T13:07:37.938Z,1.80
2018-12-12T13:10:11.389Z,1.30
2018-12-12T13:12:35.850Z,3.43
2018-12-12T13:15:03.866Z,0.88
2018-12-12T13:17:31.817Z,1.43
2018-12-12T13:19:59.796Z,3.93
2018-12-12T13:22:27.777Z,6.10
2018-12-12T13:24:55.686Z,2.30
2018-12-12T13:27:23.641Z,1.00
2018-12-12T13:29:51.622Z,3.30
2018-12-12T13:32:20.909Z,4.37
2018-12-12T13:34:49.051Z,1.43
2018-12-12T13:37:17.002Z,0.97
2018-12-12T13:39:44.978Z,1.50
2018-12-12T13:42:12.913Z,0.97
2018-12-12T13:44:40.982Z,2.10
2018-12-12T13:47:08.921Z,1.33
2018-12-12T13:49:36.926Z,4.00
2018-12-12T13:52:04.866Z,0.83
2018-12-12T13:54:32.815Z,1.43
2018-12-12T13:57:00.756Z,1.83
2018-12-12T13:59:28.757Z,5.23
2018-12-12T14:01:56.683Z,3.03
2018-12-12T14:04:24.658Z,1.70
2018-12-12T14:06:52.617Z,1.70
2018-12-12T14:09:20.560Z,2.77
2018-12-12T14:11:48.523Z,6.00
2018-12-12T14:14:16.603Z,2.20
2018-12-12T14:16:44.586Z,0.80
2018-12-12T14:19:12.560Z,0.80
2018-12-12T14:21:40.547Z,1.35
2018-12-12T14:24:08.523Z,3.53
2018-12-12T14:26:36.978Z,4.60
2018-12-12T14:29:04.959Z,1.80
2018-12-12T14:31:32.925Z,2.12
2018-12-12T14:34:00.949Z,5.40
2018-12-12T14:36:28.924Z,2.75
2018-12-12T14:38:56.926Z,0.90
2018-12-12T14:41:35.746Z,1.40
2018-12-12T14:44:03.739Z,1.00
2018-12-12T14:46:31.686Z,1.30
2018-12-12T14:48:59.677Z,1.45
2018-12-12T14:51:27.675Z,5.30
2018-12-12T14:53:55.701Z,1.65
2018-12-12T14:56:23.758Z,1.50
2018-12-12T14:58:51.715Z,2.12
2018-12-12T15:01:19.689Z,1.25
2018-12-12T15:03:47.660Z,2.20
2018-12-12T15:06:15.635Z,3.65
2018-12-12T15:08:43.611Z,2.10
2018-12-12T15:11:11.605Z,1.10
2018-12-12T15:13:39.529Z,3.55
2018-12-12T15:16:07.478Z,1.45
2018-12-12T15:18:35.491Z,1.72
2018-12-12T15:21:03.609Z,1.27
2018-12-12T15:23:38.559Z,2.10
2018-12-12T15:26:06.646Z,2.40
2018-12-12T15:28:34.585Z,1.75
2018-12-12T15:31:03.701Z,2.15
2018-12-12T15:33:31.634Z,1.42
2018-12-12T15:35:59.617Z,1.50
2018-12-12T15:38:27.598Z,2.92
2018-12-12T15:40:55.555Z,1.30
2018-12-12T15:43:23.604Z,1.17
2018-12-12T15:45:51.546Z,1.80
2018-12-12T15:48:19.496Z,7.72
2018-12-12T15:50:47.441Z,4.12
2018-12-12T15:53:15.411Z,10.05
2018-12-12T15:55:43.425Z,5.25
2018-12-12T15:58:11.413Z,6.50
2018-12-12T16:00:39.601Z,4.30
2018-12-12T16:03:11.811Z,4.90
2018-12-12T16:05:40.226Z,5.08
2018-12-12T16:08:09.236Z,6.90
2018-12-12T16:10:37.150Z,3.65
2018-12-12T16:13:05.151Z,3.95
2018-12-12T16:15:33.146Z,4.75
2018-12-12T16:18:01.102Z,5.55
2018-12-12T16:20:29.089Z,6.55
2018-12-12T16:22:57.034Z,6.30
2018-12-12T16:25:24.966Z,5.25
2018-12-12T16:27:52.955Z,8.78
2018-12-12T16:30:21.993Z,6.28
2018-12-12T16:32:49.945Z,4.62
2018-12-12T16:35:17.903Z,10.13
2018-12-12T16:37:45.920Z,10.63
2018-12-12T16:40:13.876Z,5.58
2018-12-12T16:42:41.822Z,4.05
2018-12-12T16:45:11.780Z,5.97
2018-12-12T16:47:41.369Z,11.83
2018-12-12T16:50:09.355Z,5.95
2018-12-12T16:52:37.332Z,5.42
2018-12-12T16:55:05.305Z,5.22
2018-12-12T16:57:33.273Z,3.90
2018-12-12T17:00:01.202Z,6.42
2018-12-12T17:02:29.190Z,6.10
2018-12-12T17:05:02.167Z,9.98
2018-12-12T17:07:27.242Z,7.40
2018-12-12T17:09:55.194Z,7.05
2018-12-12T17:12:23.170Z,10.78
2018-12-12T17:14:51.361Z,7.80
2018-12-12T17:17:19.630Z,7.40
2018-12-12T17:19:47.945Z,10.50
2018-12-12T17:22:16.179Z,6.95
2018-12-12T17:24:44.458Z,6.70
2018-12-12T17:27:12.673Z,4.30
2018-12-12T17:29:41.017Z,5.72
2018-12-12T17:32:09.292Z,9.15
2018-12-12T17:34:37.309Z,5.00
2018-12-12T17:37:05.263Z,16.65
2018-12-12T17:39:33.195Z,25.80
2018-12-12T17:42:01.256Z,5.30
2018-12-12T17:44:29.226Z,5.20
2018-12-12T17:46:57.265Z,8.13
2018-12-12T17:49:25.214Z,16.27
2018-12-12T17:51:53.170Z,7.30
2018-12-12T17:54:21.135Z,7.40
2018-12-12T17:56:49.135Z,12.05
2018-12-12T17:59:17.137Z,9.40
2018-12-12T18:01:45.049Z,8.68
2018-12-12T18:04:31.825Z,8.80
2018-12-12T18:06:59.835Z,8.83
2018-12-12T18:09:27.882Z,9.63
2018-12-12T18:11:55.805Z,6.30
2018-12-12T18:14:23.789Z,9.28
2018-12-12T18:16:53.874Z,15.65
2018-12-12T18:19:21.886Z,10.65
2018-12-12T18:21:49.881Z,11.38
2018-12-12T18:24:19.926Z,8.65
2018-12-12T18:26:47.954Z,10.65
2018-12-12T18:29:15.964Z,10.60
2018-12-12T18:31:43.943Z,9.98
2018-12-12T18:34:18.040Z,21.27
2018-12-12T18:36:46.018Z,9.83
2018-12-12T18:39:13.970Z,10.63
2018-12-12T18:41:49.051Z,9.10
2018-12-12T18:44:23.212Z,8.03
2018-12-12T18:46:51.283Z,7.83
2018-12-12T18:49:19.474Z,8.20
2018-12-12T18:51:49.657Z,6.50
2018-12-12T18:54:19.737Z,7.28
2018-12-12T18:56:49.750Z,9.43
2018-12-12T18:59:17.772Z,8.08
2018-12-12T19:01:45.744Z,9.45
2018-12-12T19:04:13.887Z,9.08
2018-12-12T19:06:41.876Z,8.15
2018-12-12T19:09:09.864Z,9.13
2018-12-12T19:11:44.406Z,10.63
2018-12-12T19:14:09.923Z,9.68
2018-12-12T19:16:37.851Z,9.55
2018-12-12T19:19:07.000Z,13.40
2018-12-12T19:21:35.249Z,11.33
2018-12-12T19:24:03.359Z,9.68
2018-12-12T19:26:31.295Z,9.25
2018-12-12T19:28:59.411Z,18.87
2018-12-12T19:31:27.465Z,8.80
2018-12-12T19:33:55.561Z,13.80
2018-12-12T19:36:23.689Z,11.25
2018-12-12T19:38:51.729Z,13.60
2018-12-12T19:41:19.758Z,13.13
2018-12-12T19:43:47.792Z,18.80
2018-12-12T19:46:15.861Z,18.30
2018-12-12T19:48:43.881Z,12.80
2018-12-12T19:51:11.965Z,12.63
2018-12-12T19:53:39.939Z,10.93
2018-12-12T19:56:07.966Z,14.70
2018-12-12T19:58:35.939Z,16.60
2018-12-12T20:01:03.952Z,10.20
2018-12-12T20:03:33.091Z,10.03
2018-12-12T20:06:01.070Z,12.50
2018-12-12T20:08:29.061Z,13.25
2018-12-12T20:10:58.147Z,18.98
2018-12-12T20:13:26.132Z,22.27
2018-12-12T20:15:54.281Z,20.15
2018-12-12T20:18:22.307Z,15.30
2018-12-12T20:20:50.348Z,14.15
2018-12-12T20:23:18.392Z,18.80
2018-12-12T20:25:46.374Z,19.27
2018-12-12T20:28:14.362Z,15.50
2018-12-12T20:30:42.389Z,17.62
2018-12-12T20:33:11.530Z,14.40
2018-12-12T20:35:39.543Z,16.70
2018-12-12T20:38:11.826Z,11.60
2018-12-12T20:40:39.995Z,11.80
2018-12-12T20:43:08.027Z,11.40
2018-12-12T20:45:36.131Z,16.25
2018-12-12T20:48:04.040Z,13.75
2018-12-12T20:50:32.041Z,15.70
2018-12-12T20:53:00.106Z,18.65
2018-12-12T20:55:28.094Z,17.67
2018-12-12T20:57:56.093Z,12.65
2018-12-12T21:00:24.052Z,13.75
2018-12-12T21:02:52.019Z,15.15
2018-12-12T21:05:20.039Z,13.38
2018-12-12T21:07:47.998Z,15.45
2018-12-12T21:10:16.030Z,12.82
2018-12-12T21:12:44.194Z,10.68
2018-12-12T21:15:12.182Z,12.60
2018-12-12T21:17:40.222Z,12.95
2018-12-12T21:20:09.023Z,15.38
2018-12-12T21:22:36.972Z,12.30
2018-12-12T21:25:05.291Z,14.28
2018-12-12T21:27:33.345Z,14.93
2018-12-12T21:30:01.330Z,15.32
2018-12-12T21:32:29.274Z,21.68
2018-12-12T21:34:57.260Z,24.52
2018-12-12T21:37:25.172Z,19.75
2018-12-12T21:39:53.163Z,20.60
2018-12-12T21:42:21.079Z,21.12
2018-12-12T21:44:49.013Z,15.75
2018-12-12T21:47:18.135Z,22.87
2018-12-12T21:49:46.066Z,17.45
2018-12-12T21:52:14.069Z,16.87
2018-12-12T21:54:42.039Z,15.58
2018-12-12T21:57:09.998Z,23.47
2018-12-12T21:59:37.955Z,20.20
2018-12-12T22:02:05.903Z,15.50
2018-12-12T22:04:37.287Z,15.65
2018-12-12T22:07:03.955Z,15.53
2018-12-12T22:09:31.933Z,16.05
2018-12-12T22:11:59.866Z,14.85
2018-12-12T22:14:27.834Z,20.77
2018-12-12T22:16:55.861Z,14.68
2018-12-12T22:19:23.802Z,19.55
2018-12-12T22:21:51.745Z,17.70
2018-12-12T22:24:19.715Z,15.48
2018-12-12T22:26:47.851Z,14.85
2018-12-12T22:29:15.947Z,16.20
2018-12-12T22:31:43.903Z,18.67
2018-12-12T22:34:11.860Z,18.40
2018-12-12T22:36:39.833Z,15.05
2018-12-12T22:39:07.821Z,18.77
2018-12-12T22:41:36.920Z,19.12
2018-12-12T22:44:04.935Z,18.25
2018-12-12T22:46:32.918Z,15.68
2018-12-12T22:49:00.856Z,18.62
2018-12-12T22:51:28.871Z,10.55
2018-12-12T22:53:57.457Z,17.73
2018-12-12T22:56:25.419Z,15.32
2018-12-12T22:58:53.429Z,18.12
2018-12-12T23:01:23.521Z,19.73
2018-12-12T23:03:53.543Z,21.57
2018-12-12T23:06:21.495Z,19.82
2018-12-12T23:08:49.434Z,22.07
2018-12-12T23:11:25.432Z,19.87
2018-12-12T23:13:53.526Z,20.08
2018-12-12T23:16:21.461Z,22.02
2018-12-12T23:18:49.425Z,18.15
2018-12-12T23:21:17.334Z,16.70
2018-12-12T23:23:45.519Z,15.08
2018-12-12T23:26:13.506Z,14.47
2018-12-12T23:28:41.429Z,13.43
2018-12-12T23:31:09.360Z,13.75
2018-12-12T23:33:37.304Z,15.20
2018-12-12T23:36:05.242Z,12.28
2018-12-12T23:38:33.227Z,16.77
2018-12-12T23:41:01.201Z,21.65
2018-12-12T23:43:29.163Z,16.75
2018-12-12T23:45:57.149Z,17.62
2018-12-12T23:48:25.116Z,14.78
2018-12-12T23:50:53.067Z,15.85
2018-12-12T23:53:21.002Z,13.13
2018-12-12T23:55:48.953Z,13.93
2018-12-12T23:58:16.901Z,15.13
